Terminal Aerodrome Forecast
Issued by NWS

Home | Current Version | Previous Version | Text Only | Print | Product List | Glossary On
Versions: 1 2 3 4 5 6 7 8 9 10 11 12 13 14 15 16 17 18 19 20
000
FTUS45 KABQ 282300
TAFFMN
TAF
KFMN 282320Z 0100/0124 10010KT P6SM VCSH OVC025
      TEMPO 0100/0102 2SM -RASN BR OVC006
     FM010200 VRB05KT P6SM VCSH OVC035
      TEMPO 0102/0106 3SM -SHRASN BR OVC012
     FM011100 VRB05KT 1SM -RASN BR OVC006
     FM012000 06008KT P6SM VCSH SCT015 BKN035=

USA.gov is the U.S. government's official web portal to all federal, state and local government web resources and services.